Time;durP1;ratioP1;P1;durP2;ratioP2;P2;SDS_P1;SDS_P2;PMS_P1;PMS_P2;Temp;Humidity;BMP_temperature;BMP_pressure;BME280_temperature;BME280_humidity;BME280_pressure;Samples;Min_cycle;Max_cycle;Signal;HPM_P1;HPM_P2
2023/09/06 00:02:11;;;;;;;5.13;2.40;;;20.80;99.90;;;;;;5017715;28;20124;-73
2023/09/06 00:04:37;;;;;;;6.78;2.40;;;20.80;99.90;;;;;;5017785;28;20124;-73
2023/09/06 00:07:03;;;;;;;3.97;2.30;;;20.80;99.90;;;;;;5017669;28;20042;-73
2023/09/06 00:09:29;;;;;;;4.60;2.40;;;20.80;99.90;;;;;;5017602;28;20072;-73
2023/09/06 00:11:54;;;;;;;5.60;2.35;;;20.80;99.90;;;;;;5017552;28;20075;-73
2023/09/06 00:14:20;;;;;;;3.70;1.98;;;20.80;99.90;;;;;;5017541;28;20072;-73
2023/09/06 00:16:48;;;;;;;4.93;2.15;;;20.80;99.90;;;;;;5017478;28;20037;-73
2023/09/06 00:19:17;;;;;;;4.40;2.10;;;20.80;99.90;;;;;;5017327;28;20041;-73
2023/09/06 00:21:43;;;;;;;4.30;2.20;;;20.90;99.90;;;;;;5017339;28;20524;-73
2023/09/06 00:24:12;;;;;;;4.10;2.30;;;20.80;99.90;;;;;;5017360;28;20038;-73
2023/09/06 00:26:41;;;;;;;2.80;1.90;;;20.90;99.90;;;;;;5001064;28;20068;-73
2023/09/06 00:29:07;;;;;;;3.28;2.10;;;20.90;99.90;;;;;;5017272;28;20045;-73
2023/09/06 00:31:36;;;;;;;3.40;2.10;;;20.80;99.90;;;;;;5016986;28;20128;-73
2023/09/06 00:34:02;;;;;;;7.47;2.30;;;20.90;99.90;;;;;;5000848;28;20083;-73
2023/09/06 00:36:29;;;;;;;3.55;1.70;;;20.90;99.90;;;;;;5017140;28;20076;-74
2023/09/06 00:38:58;;;;;;;4.00;1.67;;;20.90;99.90;;;;;;5017038;28;20099;-74
2023/09/06 00:41:24;;;;;;;3.42;2.17;;;21.00;99.90;;;;;;5017207;28;20037;-75
2023/09/06 00:43:50;;;;;;;5.32;2.10;;;21.00;99.90;;;;;;5017187;28;20064;-75
2023/09/06 00:46:17;;;;;;;5.85;2.25;;;21.10;99.90;;;;;;5016879;28;20494;-75
2023/09/06 00:48:43;;;;;;;4.65;2.08;;;21.10;99.90;;;;;;5016884;28;20052;-75
2023/09/06 00:51:09;;;;;;;5.30;2.00;;;21.10;99.90;;;;;;5017049;28;20041;-75
2023/09/06 00:53:35;;;;;;;3.72;2.05;;;21.10;99.90;;;;;;5017019;28;20060;-75
2023/09/06 00:56:03;;;;;;;4.18;2.35;;;21.20;99.90;;;;;;5016773;28;20493;-75
2023/09/06 00:58:30;;;;;;;6.30;2.30;;;21.20;99.90;;;;;;5016713;28;20043;-75
2023/09/06 01:00:56;;;;;;;4.53;2.40;;;21.20;99.90;;;;;;5016547;28;20041;-75
2023/09/06 01:03:21;;;;;;;4.47;2.58;;;21.20;99.90;;;;;;5016915;28;20128;-75
2023/09/06 01:06:13;;;;;;;4.30;2.00;;;21.10;99.90;;;;;;5015605;28;20569;-75
2023/09/06 01:08:45;;;;;;;4.45;2.50;;;21.20;99.90;;;;;;5016543;28;20037;-75
2023/09/06 01:11:21;;;;;;;3.15;2.35;;;21.10;99.90;;;;;;5016479;28;20041;-75
2023/09/06 01:13:49;;;;;;;3.33;2.42;;;21.10;99.90;;;;;;5000057;28;20044;-75
2023/09/06 01:16:22;;;;;;;3.20;2.13;;;21.10;99.90;;;;;;5000069;28;20401;-75
2023/09/06 01:18:48;;;;;;;3.30;2.05;;;21.00;99.90;;;;;;5016304;28;20037;-75
2023/09/06 01:21:17;;;;;;;3.35;2.10;;;21.00;99.90;;;;;;5016201;28;20194;-75
2023/09/06 01:23:44;;;;;;;5.50;2.22;;;20.90;99.90;;;;;;5016519;28;20041;-75
2023/09/06 01:26:10;;;;;;;4.75;2.40;;;20.90;99.90;;;;;;5016499;28;20099;-75
2023/09/06 01:28:35;;;;;;;3.40;2.20;;;20.90;99.90;;;;;;5016409;28;20482;-75
2023/09/06 01:31:02;;;;;;;3.75;2.30;;;20.90;99.90;;;;;;5016260;28;20037;-75
2023/09/06 01:33:29;;;;;;;3.00;1.95;;;20.90;99.90;;;;;;5016120;28;20037;-74
2023/09/06 01:35:55;;;;;;;6.40;2.58;;;20.80;99.90;;;;;;4999672;28;20128;-74
2023/09/06 01:38:21;;;;;;;3.53;2.35;;;20.90;99.90;;;;;;5015956;28;20077;-74
2023/09/06 01:40:46;;;;;;;5.88;2.50;;;20.80;99.90;;;;;;5015842;28;20080;-74
2023/09/06 01:43:13;;;;;;;3.85;2.30;;;20.80;99.90;;;;;;5016220;28;20611;-74
2023/09/06 01:45:51;;;;;;;3.03;2.30;;;20.80;99.90;;;;;;5015971;28;20041;-74
2023/09/06 01:48:18;;;;;;;5.38;2.22;;;20.80;99.90;;;;;;5015906;28;20092;-74
2023/09/06 01:50:43;;;;;;;3.47;2.30;;;20.70;99.90;;;;;;5015755;28;20045;-74
2023/09/06 01:53:09;;;;;;;5.82;2.30;;;20.70;99.90;;;;;;5015782;28;20059;-74
2023/09/06 01:55:35;;;;;;;5.05;2.50;;;20.70;99.90;;;;;;4999647;28;20034;-74
2023/09/06 01:58:00;;;;;;;5.45;2.25;;;20.70;99.90;;;;;;5015687;28;20600;-74
2023/09/06 02:00:31;;;;;;;3.30;1.98;;;20.70;99.90;;;;;;4999198;28;20132;-74
2023/09/06 02:02:59;;;;;;;4.57;2.42;;;20.70;99.90;;;;;;5015672;28;20037;-74
2023/09/06 02:05:25;;;;;;;4.15;2.10;;;20.70;99.90;;;;;;5015863;28;20060;-74
2023/09/06 02:07:51;;;;;;;4.43;2.58;;;20.70;99.90;;;;;;5015873;28;20405;-74
2023/09/06 02:10:17;;;;;;;4.32;2.35;;;20.60;99.90;;;;;;5015688;28;20053;-74
2023/09/06 02:12:43;;;;;;;6.30;2.38;;;20.60;99.90;;;;;;4999183;28;20049;-75
2023/09/06 02:15:10;;;;;;;3.78;2.05;;;20.60;99.90;;;;;;5015765;28;20103;-75
2023/09/06 02:17:36;;;;;;;3.70;2.50;;;20.60;99.90;;;;;;5015171;28;20095;-75
2023/09/06 02:20:19;;;;;;;3.20;2.05;;;20.50;99.90;;;;;;4999100;28;20033;-75
2023/09/06 02:22:56;;;;;;;3.20;1.90;;;20.50;99.90;;;;;;5015690;28;20056;-75
2023/09/06 02:25:24;;;;;;;2.83;2.08;;;20.40;99.90;;;;;;5016274;28;20124;-75
2023/09/06 02:27:50;;;;;;;2.85;2.17;;;20.40;99.90;;;;;;5015434;28;20112;-75
2023/09/06 02:30:17;;;;;;;3.90;2.40;;;20.30;99.90;;;;;;5015347;28;20084;-75
2023/09/06 02:32:42;;;;;;;2.88;2.05;;;20.20;99.90;;;;;;5015207;28;20445;-75
2023/09/06 02:35:08;;;;;;;3.67;2.30;;;20.20;99.90;;;;;;5015340;28;20079;-75
2023/09/06 02:37:34;;;;;;;5.05;2.38;;;20.10;99.90;;;;;;4998860;28;20077;-75
2023/09/06 02:40:01;;;;;;;4.40;1.90;;;20.10;99.90;;;;;;4999317;28;20049;-75
2023/09/06 02:42:27;;;;;;;3.38;2.10;;;20.00;99.90;;;;;;5015429;28;20049;-75
2023/09/06 02:44:53;;;;;;;3.58;2.08;;;19.90;99.90;;;;;;5015557;28;20405;-75
2023/09/06 02:47:28;;;;;;;3.20;2.20;;;19.80;99.90;;;;;;5015207;28;20037;-75
2023/09/06 02:49:55;;;;;;;4.60;2.40;;;19.80;99.90;;;;;;5015175;28;20049;-75
2023/09/06 02:52:28;;;;;;;6.05;2.20;;;19.70;99.90;;;;;;4998993;28;20041;-75
2023/09/06 02:54:54;;;;;;;;;;;19.70;99.90;;;;;;5015537;28;20497;-75
2023/09/06 02:57:20;;;;;;;4.65;1.75;;;19.50;99.90;;;;;;5015090;28;19917;-75
2023/09/06 02:59:46;;;;;;;5.55;2.08;;;19.50;99.90;;;;;;4998839;28;20114;-75
2023/09/06 03:02:12;;;;;;;7.18;2.13;;;19.40;99.90;;;;;;5014998;28;20446;-75
2023/09/06 03:04:40;;;;;;;3.20;2.08;;;19.40;99.90;;;;;;5015313;28;20037;-75
2023/09/06 03:07:09;;;;;;;3.30;1.70;;;19.40;99.90;;;;;;4998667;28;20037;-75
2023/09/06 03:09:38;;;;;;;3.00;2.05;;;19.30;99.90;;;;;;5015177;28;20049;-75
2023/09/06 03:12:14;;;;;;;3.22;1.70;;;19.30;99.90;;;;;;5014860;28;20072;-75
2023/09/06 03:14:44;;;;;;;2.83;1.83;;;19.20;99.90;;;;;;5014951;28;20045;-75
2023/09/06 03:17:13;;;;;;;4.65;1.88;;;19.20;99.90;;;;;;5014894;28;20046;-75
2023/09/06 03:19:40;;;;;;;6.30;2.05;;;19.10;99.90;;;;;;5014770;28;20571;-75
2023/09/06 03:22:09;;;;;;;5.55;2.42;;;19.10;99.90;;;;;;5014776;28;20417;-75
2023/09/06 03:24:43;;;;;;;3.08;2.20;;;19.10;99.90;;;;;;5015158;28;20088;-75
2023/09/06 03:27:15;;;;;;;3.33;2.20;;;19.20;99.90;;;;;;5014883;28;20064;-75
2023/09/06 03:29:41;;;;;;;7.30;2.72;;;19.10;99.90;;;;;;5016924;28;20425;-75
2023/09/06 03:32:10;;;;;;;4.97;2.90;;;19.20;99.90;;;;;;5018495;28;20048;-75
2023/09/06 03:34:37;;;;;;;5.43;2.78;;;19.20;99.90;;;;;;5018274;28;20045;-75
2023/09/06 03:37:08;;;;;;;4.72;2.65;;;19.20;99.90;;;;;;5018267;28;20041;-75
2023/09/06 03:39:43;;;;;;;4.30;2.65;;;19.30;99.90;;;;;;5001857;28;20045;-75
2023/09/06 03:42:09;;;;;;;4.43;2.70;;;19.30;99.90;;;;;;5018123;28;20076;-75
2023/09/06 03:44:36;;;;;;;5.45;2.90;;;19.30;99.90;;;;;;5018163;28;20080;-75
2023/09/06 03:47:05;;;;;;;5.97;2.88;;;19.30;99.90;;;;;;5001831;28;20520;-75
2023/09/06 03:49:32;;;;;;;7.82;3.30;;;19.30;99.90;;;;;;5001675;28;20042;-75
2023/09/06 03:51:59;;;;;;;3.80;2.75;;;19.30;99.90;;;;;;5018000;28;20056;-75
2023/09/06 03:54:24;;;;;;;5.85;2.90;;;19.30;99.90;;;;;;5017983;28;20049;-75
2023/09/06 03:56:50;;;;;;;5.00;3.10;;;19.30;99.90;;;;;;5017908;28;20041;-75
2023/09/06 03:59:16;;;;;;;6.00;3.63;;;19.40;99.90;;;;;;5002280;28;20081;-75
2023/09/06 04:01:43;;;;;;;5.03;3.15;;;19.30;99.90;;;;;;5017744;28;20532;-75
2023/09/06 04:04:10;;;;;;;5.15;3.47;;;19.40;99.90;;;;;;5017775;28;20049;-75
2023/09/06 04:06:35;;;;;;;4.65;3.55;;;19.40;99.90;;;;;;5017746;28;20045;-75
2023/09/06 04:09:01;;;;;;;10.45;3.33;;;19.30;99.90;;;;;;5001630;28;20037;-75
2023/09/06 04:11:27;;;;;;;3.80;3.13;;;19.30;99.90;;;;;;5017857;28;20033;-75
2023/09/06 04:13:55;;;;;;;8.48;3.50;;;19.40;99.90;;;;;;5001305;28;20490;-75
2023/09/06 04:16:22;;;;;;;6.90;3.15;;;19.30;99.90;;;;;;5017785;28;20049;-75
2023/09/06 04:18:48;;;;;;;8.52;3.80;;;19.40;99.90;;;;;;5017421;28;20037;-75
2023/09/06 04:21:13;;;;;;;5.93;2.88;;;19.30;99.90;;;;;;5017359;28;20033;-75
2023/09/06 04:23:40;;;;;;;7.63;3.38;;;19.30;99.90;;;;;;5017685;28;20044;-75
2023/09/06 04:26:05;;;;;;;8.02;3.20;;;19.30;99.90;;;;;;5017340;28;20048;-75
2023/09/06 04:28:31;;;;;;;4.45;2.70;;;19.30;99.90;;;;;;5000971;28;20029;-75
2023/09/06 04:30:58;;;;;;;5.70;3.35;;;19.30;99.90;;;;;;5017208;28;20037;-75
2023/09/06 04:33:24;;;;;;;5.78;3.20;;;19.30;99.90;;;;;;5017251;28;20049;-75
2023/09/06 04:35:50;;;;;;;5.50;3.33;;;19.30;99.90;;;;;;5017427;28;20061;-75
2023/09/06 04:38:18;;;;;;;4.63;2.90;;;19.20;99.90;;;;;;5017245;28;20042;-75
2023/09/06 04:40:44;;;;;;;4.60;3.25;;;19.20;99.90;;;;;;5016781;28;20041;-75
2023/09/06 04:43:11;;;;;;;4.05;2.95;;;19.20;99.90;;;;;;5017033;28;20512;-75
2023/09/06 04:45:39;;;;;;;5.65;2.97;;;19.20;99.90;;;;;;5017020;28;20048;-75
2023/09/06 04:48:16;;;;;;;5.43;3.35;;;19.20;99.90;;;;;;5016939;28;20038;-75
2023/09/06 04:50:43;;;;;;;5.18;3.20;;;19.10;99.90;;;;;;5017207;28;20055;-75
2023/09/06 04:53:09;;;;;;;4.32;3.28;;;19.10;99.90;;;;;;5016851;28;20084;-75
2023/09/06 04:55:35;;;;;;;5.82;3.38;;;19.10;99.90;;;;;;5017015;28;20076;-75
2023/09/06 04:58:05;;;;;;;6.20;3.45;;;19.00;99.90;;;;;;5017033;28;20144;-75
2023/09/06 05:00:36;;;;;;;8.27;3.30;;;19.00;99.90;;;;;;5016577;28;20576;-75
2023/09/06 05:03:03;;;;;;;4.72;3.40;;;19.00;99.90;;;;;;5000420;28;20076;-75
2023/09/06 05:05:29;;;;;;;4.25;3.10;;;19.00;99.90;;;;;;5016583;28;20037;-75
2023/09/06 05:07:54;;;;;;;6.72;3.55;;;19.00;99.90;;;;;;5016819;28;20045;-75
2023/09/06 05:10:20;;;;;;;5.45;3.40;;;19.00;99.90;;;;;;5016431;28;20041;-75
2023/09/06 05:12:46;;;;;;;5.47;3.60;;;18.90;99.90;;;;;;5000487;28;20037;-75
2023/09/06 05:15:13;;;;;;;6.47;3.05;;;18.90;99.90;;;;;;5016725;28;20061;-76
2023/09/06 05:17:41;;;;;;;6.40;3.65;;;18.90;99.90;;;;;;5016324;28;20521;-76
2023/09/06 05:20:34;;;;;;;6.45;3.20;;;19.00;99.90;;;;;;5016219;28;20069;-76
2023/09/06 05:23:05;;;;;;;6.13;3.42;;;19.00;99.90;;;;;;4999996;28;20044;-76
2023/09/06 05:25:31;;;;;;;7.45;3.60;;;18.90;99.90;;;;;;5016541;28;20034;-76
2023/09/06 05:27:59;;;;;;;7.95;3.40;;;19.00;99.90;;;;;;5016243;28;20073;-76
2023/09/06 05:30:26;;;;;;;4.80;3.60;;;18.90;99.90;;;;;;5016113;28;20120;-76
2023/09/06 05:32:56;;;;;;;6.03;3.45;;;19.00;99.90;;;;;;4999744;28;20505;-76
2023/09/06 05:35:22;;;;;;;4.82;3.50;;;19.00;99.90;;;;;;5016171;28;20037;-76
2023/09/06 05:37:48;;;;;;;5.90;3.63;;;19.00;99.90;;;;;;4999712;28;20043;-76
2023/09/06 05:40:15;;;;;;;10.77;4.32;;;19.00;99.90;;;;;;5015879;28;20175;-76
2023/09/06 05:42:41;;;;;;;5.22;3.40;;;19.10;99.90;;;;;;5016260;28;20367;-75
2023/09/06 05:45:10;;;;;;;6.20;3.58;;;19.10;99.90;;;;;;5015942;28;20568;-75
2023/09/06 05:47:36;;;;;;;7.20;3.78;;;19.20;99.90;;;;;;5015857;28;20044;-75
2023/09/06 05:50:02;;;;;;;5.50;3.47;;;19.20;99.90;;;;;;5015844;28;20045;-74
2023/09/06 05:52:28;;;;;;;4.57;3.40;;;19.20;99.90;;;;;;5015517;28;20047;-75
2023/09/06 05:54:54;;;;;;;5.22;3.20;;;19.20;99.90;;;;;;5016064;28;20409;-75
2023/09/06 05:57:20;;;;;;;5.53;4.18;;;19.20;99.90;;;;;;5015699;28;20037;-75
2023/09/06 05:59:46;;;;;;;5.40;3.40;;;19.30;99.90;;;;;;5015668;28;20037;-75
2023/09/06 06:02:12;;;;;;;5.20;3.63;;;19.30;99.90;;;;;;4999617;28;20033;-75
2023/09/06 06:04:37;;;;;;;8.80;3.70;;;19.30;99.90;;;;;;4999241;28;20044;-75
2023/09/06 06:07:03;;;;;;;5.07;3.50;;;19.40;99.90;;;;;;5015566;28;20038;-75
2023/09/06 06:09:29;;;;;;;7.00;3.92;;;19.40;99.90;;;;;;5015581;28;20092;-75
2023/09/06 06:11:54;;;;;;;5.72;3.40;;;19.40;99.90;;;;;;5015510;28;20048;-75
2023/09/06 06:14:22;;;;;;;6.45;3.75;;;19.40;99.90;;;;;;5015514;28;20064;-75
2023/09/06 06:16:48;;;;;;;4.85;3.22;;;19.40;99.90;;;;;;5015496;28;20057;-75
2023/09/06 06:19:13;;;;;;;5.20;3.53;;;19.50;99.90;;;;;;5015411;28;20045;-75
2023/09/06 06:21:40;;;;;;;5.30;3.80;;;19.60;99.90;;;;;;5015655;28;20040;-75
2023/09/06 06:24:09;;;;;;;6.13;3.88;;;19.60;99.90;;;;;;5015488;28;20034;-75
2023/09/06 06:26:35;;;;;;;5.47;3.38;;;19.60;99.90;;;;;;5015676;28;20049;-75
2023/09/06 06:29:01;;;;;;;6.88;3.38;;;19.60;99.90;;;;;;5015657;28;20037;-75
2023/09/06 06:31:27;;;;;;;6.18;3.47;;;19.70;99.90;;;;;;5015445;28;20107;-75
2023/09/06 06:33:53;;;;;;;5.28;3.35;;;19.70;99.90;;;;;;5015557;28;20034;-75
2023/09/06 06:36:19;;;;;;;5.22;4.03;;;19.80;99.90;;;;;;5015559;28;20548;-75
2023/09/06 06:38:47;;;;;;;9.43;3.83;;;19.80;99.90;;;;;;5015466;28;20100;-75
2023/09/06 06:41:23;;;;;;;10.43;4.35;;;19.90;99.90;;;;;;5015170;28;20045;-75
2023/09/06 06:43:55;;;;;;;20.55;5.72;;;19.90;99.90;;;;;;5015333;28;20029;-75
2023/09/06 06:46:32;;;;;;;6.63;3.60;;;20.00;99.90;;;;;;5015266;28;20498;-75
2023/09/06 06:48:59;;;;;;;8.15;3.50;;;20.00;99.90;;;;;;5015177;28;20038;-75
2023/09/06 06:51:38;;;;;;;7.60;3.60;;;20.00;99.90;;;;;;5015348;28;20038;-73
2023/09/06 06:54:08;;;;;;;5.28;3.50;;;20.10;99.90;;;;;;4998820;28;20409;-73
2023/09/06 06:56:35;;;;;;;5.28;3.28;;;20.20;99.90;;;;;;5015454;28;20045;-73
2023/09/06 06:59:02;;;;;;;5.82;3.30;;;20.20;99.90;;;;;;5015098;28;20120;-73
2023/09/06 07:01:28;;;;;;;6.93;3.40;;;20.30;99.90;;;;;;5015268;28;20041;-73
2023/09/06 07:03:57;;;;;;;5.85;2.80;;;20.40;99.90;;;;;;5016075;28;20087;-73
2023/09/06 07:06:24;;;;;;;5.38;3.10;;;20.40;99.90;;;;;;5018856;28;20037;-73
2023/09/06 07:08:50;;;;;;;5.57;2.90;;;20.50;99.90;;;;;;5018859;28;20042;-73
2023/09/06 07:11:16;;;;;;;5.07;3.00;;;20.50;99.90;;;;;;5018896;28;20038;-72
2023/09/06 07:13:42;;;;;;;7.72;2.90;;;20.60;99.90;;;;;;5018733;28;20551;-72
2023/09/06 07:16:09;;;;;;;3.58;2.35;;;20.70;99.90;;;;;;5018954;28;20072;-72
2023/09/06 07:18:35;;;;;;;5.43;2.58;;;20.80;99.90;;;;;;5018618;28;20080;-72
2023/09/06 07:21:00;;;;;;;7.45;2.95;;;20.90;99.90;;;;;;5036250;28;20070;-72
2023/09/06 07:23:27;;;;;;;5.18;2.75;;;21.00;99.90;;;;;;5018755;28;20489;-73
2023/09/06 07:25:52;;;;;;;6.15;2.45;;;21.00;99.90;;;;;;5018602;28;20045;-73
2023/09/06 07:28:21;;;;;;;3.10;2.22;;;21.10;99.90;;;;;;5018776;28;20037;-73
2023/09/06 07:30:46;;;;;;;4.30;1.98;;;21.20;99.90;;;;;;5018439;28;20038;-72
2023/09/06 07:33:12;;;;;;;6.00;2.30;;;21.30;99.90;;;;;;5018921;28;20038;-73
2023/09/06 07:35:40;;;;;;;5.05;2.40;;;21.40;99.90;;;;;;5018899;28;20069;-73
2023/09/06 07:38:06;;;;;;;2.78;1.83;;;21.40;99.90;;;;;;5018614;28;20042;-73
2023/09/06 07:40:31;;;;;;;4.30;2.08;;;21.50;99.90;;;;;;5018206;28;20052;-72
2023/09/06 07:42:57;;;;;;;3.67;2.38;;;21.60;99.90;;;;;;5018185;28;20124;-73
2023/09/06 07:45:22;;;;;;;5.63;2.33;;;21.80;99.90;;;;;;5018327;28;20099;-73
2023/09/06 07:47:48;;;;;;;5.47;2.00;;;21.80;99.90;;;;;;5018118;28;20080;-73
2023/09/06 07:50:14;;;;;;;3.67;2.10;;;21.90;99.90;;;;;;5017983;28;20095;-73
2023/09/06 07:52:39;;;;;;;3.50;2.17;;;22.00;99.90;;;;;;5018041;28;20077;-73
2023/09/06 07:55:05;;;;;;;4.75;2.28;;;22.10;99.90;;;;;;5018186;28;20044;-73
2023/09/06 07:57:31;;;;;;;11.15;3.75;;;22.30;99.90;;;;;;5017879;28;20501;-73
2023/09/06 07:59:57;;;;;;;3.30;2.08;;;22.30;99.90;;;;;;5017784;28;20048;-73
2023/09/06 08:02:22;;;;;;;3.17;2.17;;;22.50;99.90;;;;;;5018029;28;20128;-72
2023/09/06 08:04:50;;;;;;;6.97;2.10;;;22.60;99.90;;;;;;5017742;28;20041;-72
2023/09/06 08:07:16;;;;;;;6.38;2.67;;;22.80;99.90;;;;;;5001359;28;20077;-72
2023/09/06 08:09:42;;;;;;;5.15;1.95;;;22.90;99.90;;;;;;5017669;28;20049;-72
2023/09/06 08:12:08;;;;;;;4.78;1.88;;;23.00;99.90;;;;;;5017654;28;20045;-72
2023/09/06 08:14:33;;;;;;;5.97;1.98;;;23.20;99.90;;;;;;5017034;28;20041;-72
2023/09/06 08:16:59;;;;;;;4.35;2.30;;;23.30;99.90;;;;;;5017690;28;20045;-71
2023/09/06 08:19:25;;;;;;;4.28;2.00;;;23.50;99.90;;;;;;5017414;28;20104;-72
2023/09/06 08:21:51;;;;;;;9.45;2.95;;;23.70;99.90;;;;;;5017357;28;20045;-72
2023/09/06 08:24:18;;;;;;;4.47;2.28;;;23.90;99.90;;;;;;5017650;28;20052;-72
2023/09/06 08:26:45;;;;;;;3.33;1.70;;;24.10;99.70;;;;;;5001122;28;20037;-72
2023/09/06 08:29:11;;;;;;;4.05;2.03;;;24.30;99.20;;;;;;5018093;28;20060;-72
2023/09/06 08:31:36;;;;;;;5.78;2.20;;;24.40;98.50;;;;;;5017210;28;20600;-72
2023/09/06 08:34:02;;;;;;;3.92;2.05;;;24.60;97.80;;;;;;5017311;28;20034;-72
2023/09/06 08:36:28;;;;;;;5.13;1.90;;;24.80;97.00;;;;;;5017189;28;20046;-72
2023/09/06 08:38:53;;;;;;;4.53;2.28;;;24.90;96.20;;;;;;5017603;28;20116;-72
2023/09/06 08:41:20;;;;;;;6.07;2.05;;;25.10;95.00;;;;;;5017035;28;20410;-72
2023/09/06 08:43:47;;;;;;;5.40;1.73;;;25.30;94.30;;;;;;5016877;28;20405;-72
2023/09/06 08:46:27;;;;;;;4.88;1.92;;;25.50;93.70;;;;;;5016884;28;20049;-72
2023/09/06 08:48:55;;;;;;;5.88;2.00;;;25.70;92.30;;;;;;5017165;28;20050;-71
2023/09/06 08:51:21;;;;;;;2.95;1.95;;;25.80;91.60;;;;;;5016939;28;20100;-71
2023/09/06 08:53:48;;;;;;;5.40;1.80;;;26.10;91.60;;;;;;5016951;28;20041;-72
2023/09/06 08:56:17;;;;;;;7.45;2.10;;;26.30;91.30;;;;;;5016743;28;20049;-72
2023/09/06 08:58:43;;;;;;;4.72;2.17;;;26.50;90.50;;;;;;5016969;28;20053;-72
2023/09/06 09:01:08;;;;;;;6.20;2.03;;;26.70;89.00;;;;;;5016548;28;20463;-72
2023/09/06 09:03:34;;;;;;;3.63;1.60;;;26.90;87.20;;;;;;5016582;28;20045;-72
2023/09/06 09:06:02;;;;;;;5.18;1.67;;;27.00;86.90;;;;;;5016871;28;20046;-72
2023/09/06 09:08:28;;;;;;;7.13;2.17;;;27.20;85.90;;;;;;5016617;28;20045;-72
2023/09/06 09:11:07;;;;;;;7.03;1.92;;;27.30;83.90;;;;;;5016431;28;20052;-72
2023/09/06 09:13:32;;;;;;;6.15;2.30;;;27.60;82.70;;;;;;5016524;28;20413;-72
2023/09/06 09:15:58;;;;;;;3.85;1.90;;;27.70;82.10;;;;;;5016480;28;20044;-72
2023/09/06 09:18:23;;;;;;;6.30;2.00;;;27.90;82.20;;;;;;5016475;28;20095;-72
2023/09/06 09:20:50;;;;;;;6.30;1.92;;;28.00;80.20;;;;;;5016663;28;20128;-72
2023/09/06 09:23:16;;;;;;;7.28;2.00;;;28.30;79.40;;;;;;5016386;28;20154;-72
2023/09/06 09:25:51;;;;;;;8.00;2.05;;;28.40;79.60;;;;;;5016055;28;20103;-72
2023/09/06 09:28:17;;;;;;;3.92;1.90;;;28.60;78.10;;;;;;5015756;28;20552;-72
2023/09/06 09:30:42;;;;;;;5.60;2.00;;;28.80;77.00;;;;;;5015970;28;20121;-72
2023/09/06 09:33:08;;;;;;;5.55;1.95;;;29.00;76.70;;;;;;4999790;28;20049;-72
2023/09/06 09:35:35;;;;;;;4.13;1.98;;;29.20;75.00;;;;;;5016289;28;20060;-74
2023/09/06 09:38:02;;;;;;;5.03;1.92;;;29.30;75.90;;;;;;5016045;28;20405;-72
2023/09/06 09:40:34;;;;;;;3.60;2.22;;;29.50;75.50;;;;;;4999524;28;20083;-71
2023/09/06 09:43:07;;;;;;;6.18;2.22;;;29.60;74.00;;;;;;5016143;28;20073;-70
2023/09/06 09:45:40;;;;;;;;;;;29.90;73.30;;;;;;5016627;28;20071;-71
2023/09/06 09:48:07;;;;;;;6.57;2.33;;;30.00;72.80;;;;;;5015878;28;19926;-70
2023/09/06 09:50:34;;;;;;;4.53;2.20;;;30.20;72.20;;;;;;5015743;28;20041;-70
2023/09/06 09:53:03;;;;;;;5.28;1.90;;;30.30;70.50;;;;;;5015990;28;20489;-70
2023/09/06 09:55:34;;;;;;;4.68;2.00;;;30.40;69.40;;;;;;5016031;28;20041;-70
2023/09/06 09:58:07;;;;;;;5.85;1.77;;;30.40;69.40;;;;;;5016072;28;20516;-75
2023/09/06 10:00:38;;;;;;;5.78;1.80;;;30.60;68.90;;;;;;4999186;28;20045;-70
2023/09/06 10:03:04;;;;;;;3.22;1.70;;;30.80;68.80;;;;;;5015767;28;20033;-70
2023/09/06 10:05:31;;;;;;;4.55;2.05;;;31.00;68.20;;;;;;5015678;28;20091;-70
2023/09/06 10:07:58;;;;;;;6.95;2.15;;;31.10;67.90;;;;;;5015863;28;20135;-71
2023/09/06 10:10:24;;;;;;;7.25;2.28;;;31.30;67.90;;;;;;5015493;28;20041;-71
2023/09/06 10:12:51;;;;;;;4.80;1.95;;;31.40;66.60;;;;;;5015820;28;20037;-70
2023/09/06 10:15:23;;;;;;;4.18;1.90;;;31.50;66.10;;;;;;5015551;28;20042;-71
2023/09/06 10:17:50;;;;;;;5.97;1.73;;;31.60;65.90;;;;;;5015645;28;20124;-71
2023/09/06 10:20:16;;;;;;;3.60;2.10;;;31.60;66.10;;;;;;5015457;28;20478;-68
2023/09/06 10:22:44;;;;;;;4.82;1.65;;;31.80;64.70;;;;;;5015471;28;20053;-68
2023/09/06 10:25:10;;;;;;;5.13;1.77;;;31.80;64.60;;;;;;5015440;28;20040;-68
2023/09/06 10:27:48;;;;;;;3.28;1.67;;;31.90;63.30;;;;;;5015383;28;20041;-69
2023/09/06 10:30:17;;;;;;;3.53;1.85;;;32.00;63.80;;;;;;5015373;28;20501;-68
2023/09/06 10:32:46;;;;;;;9.07;1.95;;;32.20;63.50;;;;;;5015246;28;20053;-68
2023/09/06 10:35:20;;;;;;;3.47;1.75;;;32.20;63.40;;;;;;5015428;28;20052;-68
2023/09/06 10:38:05;;;;;;;3.80;1.90;;;32.30;63.50;;;;;;5016387;28;20138;-68
2023/09/06 10:40:49;;;;;;;5.40;1.98;;;32.40;60.90;;;;;;5019298;28;20042;-68
2023/09/06 10:43:57;;;;;;;2.08;1.48;;;32.50;61.60;;;;;;5019570;28;20068;-68
2023/09/06 10:46:26;;;;;;;4.18;1.80;;;32.60;60.10;;;;;;4984884;28;20042;-68
2023/09/06 10:49:11;;;;;;;4.15;1.50;;;32.80;60.50;;;;;;5019403;28;20371;-68
2023/09/06 10:51:57;;;;;;;3.67;1.50;;;32.80;59.30;;;;;;5019122;28;20045;-68
2023/09/06 10:54:33;;;;;;;4.10;1.70;;;32.80;58.50;;;;;;5019129;28;20413;-69
2023/09/06 10:57:02;;;;;;;2.72;1.50;;;32.90;59.60;;;;;;5019098;28;20045;-69
2023/09/06 10:59:28;;;;;;;5.28;1.55;;;33.00;58.50;;;;;;5019102;28;20125;-68
2023/09/06 11:02:15;;;;;;;6.93;1.77;;;33.10;58.70;;;;;;5018928;28;20508;-71
2023/09/06 11:04:42;;;;;;;3.38;1.67;;;33.20;57.70;;;;;;5018908;28;20043;-68
2023/09/06 11:07:11;;;;;;;2.97;1.45;;;33.20;56.90;;;;;;5018902;28;20124;-68
2023/09/06 11:09:45;;;;;;;4.00;1.60;;;33.30;57.30;;;;;;5018840;28;20045;-68
2023/09/06 11:12:14;;;;;;;4.32;1.45;;;33.30;58.10;;;;;;5018992;28;20060;-68
2023/09/06 11:14:47;;;;;;;6.35;1.70;;;33.40;56.20;;;;;;5018784;28;20079;-68
2023/09/06 11:17:23;;;;;;;4.78;1.83;;;33.50;56.60;;;;;;5018810;28;20054;-68
2023/09/06 11:19:50;;;;;;;2.65;1.73;;;33.60;55.50;;;;;;5018552;28;20497;-68
2023/09/06 11:22:16;;;;;;;2.60;1.20;;;33.60;55.30;;;;;;5018521;28;20045;-68
2023/09/06 11:24:42;;;;;;;1.98;1.30;;;33.80;55.30;;;;;;5018558;28;20069;-68
2023/09/06 11:27:22;;;;;;;2.95;1.50;;;33.80;54.80;;;;;;5018591;28;20083;-69
2023/09/06 11:30:10;;;;;;;3.05;1.27;;;34.00;54.70;;;;;;5018489;28;20581;-68
2023/09/06 11:32:35;;;;;;;2.95;1.52;;;34.10;53.90;;;;;;5018590;28;20099;-69
2023/09/06 11:35:03;;;;;;;4.00;1.45;;;34.10;53.10;;;;;;5002261;28;20486;-69
2023/09/06 11:37:30;;;;;;;4.07;1.60;;;34.10;52.40;;;;;;5018318;28;20056;-69
2023/09/06 11:39:57;;;;;;;2.08;1.20;;;34.20;52.40;;;;;;5018154;28;20048;-69
2023/09/06 11:42:24;;;;;;;2.78;1.42;;;34.30;52.10;;;;;;5018217;28;20087;-68
2023/09/06 11:44:53;;;;;;;3.47;1.35;;;34.40;53.40;;;;;;5018177;28;20117;-68
2023/09/06 11:47:23;;;;;;;3.17;1.23;;;34.50;53.00;;;;;;5001701;28;20030;-68
2023/09/06 11:49:49;;;;;;;2.83;1.63;;;34.60;53.40;;;;;;5017383;28;20054;-68
2023/09/06 11:52:19;;;;;;;2.78;1.23;;;34.70;52.60;;;;;;5017924;28;20075;-69
2023/09/06 11:54:49;;;;;;;5.22;1.33;;;34.70;52.10;;;;;;5017948;28;20504;-69
2023/09/06 11:57:26;;;;;;;4.35;1.55;;;34.80;53.00;;;;;;5018010;28;20057;-69
2023/09/06 11:59:59;;;;;;;3.78;1.27;;;34.90;52.60;;;;;;5019105;28;20124;-69
2023/09/06 12:02:30;;;;;;;4.85;1.65;;;35.00;51.40;;;;;;5017840;28;20120;-69
2023/09/06 12:05:01;;;;;;;3.08;1.50;;;35.10;50.90;;;;;;5018110;28;20087;-69
2023/09/06 12:07:34;;;;;;;2.45;1.40;;;35.20;51.30;;;;;;5001648;28;20033;-69
2023/09/06 12:10:03;;;;;;;3.45;1.50;;;35.20;49.50;;;;;;5017828;28;20120;-69
2023/09/06 12:12:38;;;;;;;4.00;1.15;;;35.20;50.00;;;;;;5017672;28;20052;-70
2023/09/06 12:15:05;;;;;;;4.03;1.27;;;35.20;50.00;;;;;;5017683;28;20033;-70
2023/09/06 12:17:31;;;;;;;5.20;1.20;;;35.30;51.90;;;;;;5017608;28;20052;-70
2023/09/06 12:19:58;;;;;;;5.05;2.10;;;35.30;50.90;;;;;;5017659;28;20060;-70
2023/09/06 12:22:24;;;;;;;2.92;1.42;;;35.30;51.50;;;;;;5017734;28;20068;-70
2023/09/06 12:24:51;;;;;;;2.45;1.27;;;35.30;51.20;;;;;;5017448;28;20489;-70
2023/09/06 12:27:20;;;;;;;6.18;1.65;;;35.40;50.80;;;;;;5017486;28;20051;-71
2023/09/06 12:29:45;;;;;;;6.22;1.58;;;35.40;50.90;;;;;;5017351;28;20537;-72
2023/09/06 12:32:11;;;;;;;7.28;1.83;;;35.40;52.10;;;;;;5017140;28;20079;-72
2023/09/06 12:34:37;;;;;;;4.25;1.60;;;35.50;51.60;;;;;;5000868;28;20048;-73
2023/09/06 12:37:02;;;;;;;3.85;1.40;;;35.50;51.10;;;;;;5017109;28;20080;-72
2023/09/06 12:39:28;;;;;;;4.38;1.73;;;35.60;51.10;;;;;;5017034;28;20072;-72
2023/09/06 12:41:54;;;;;;;3.10;1.40;;;35.60;52.60;;;;;;5017048;28;20041;-73
2023/09/06 12:44:19;;;;;;;5.95;1.80;;;35.60;51.50;;;;;;5017073;28;20088;-72
2023/09/06 12:46:45;;;;;;;2.97;1.40;;;35.60;51.00;;;;;;5017225;28;20045;-72
2023/09/06 12:49:10;;;;;;;4.70;1.38;;;35.60;50.10;;;;;;5017296;28;20509;-73
2023/09/06 12:51:37;;;;;;;4.45;1.80;;;35.70;50.90;;;;;;5017142;28;20042;-72
2023/09/06 12:54:03;;;;;;;3.13;1.20;;;35.60;51.50;;;;;;5017163;28;20041;-72